sensor_id;sensor_type;location;lat;lon;timestamp;pressure;altitude;pressure_sealevel;temperature
69420;BMP280;56612;52.030;113.524;2022-09-03T00:03:28;92725.97;;;12.75
69420;BMP280;56612;52.030;113.524;2022-09-03T00:06:48;92735.34;;;12.92
69420;BMP280;56612;52.030;113.524;2022-09-03T00:10:02;92740.72;;;12.94
69420;BMP280;56612;52.030;113.524;2022-09-03T00:13:08;92734.69;;;12.96
69420;BMP280;56612;52.030;113.524;2022-09-03T00:16:16;92730.63;;;13.09
69420;BMP280;56612;52.030;113.524;2022-09-03T00:19:38;92735.28;;;13.17
69420;BMP280;56612;52.030;113.524;2022-09-03T00:22:54;92719.13;;;13.37
69420;BMP280;56612;52.030;113.524;2022-09-03T00:26:04;92725.75;;;13.58
69420;BMP280;56612;52.030;113.524;2022-09-03T00:29:34;92728.34;;;13.77
69420;BMP280;56612;52.030;113.524;2022-09-03T00:32:46;92716.94;;;13.78
69420;BMP280;56612;52.030;113.524;2022-09-03T00:36:02;92714.88;;;13.83
69420;BMP280;56612;52.030;113.524;2022-09-03T00:39:14;92714.16;;;13.98
69420;BMP280;56612;52.030;113.524;2022-09-03T00:42:51;92713.28;;;14.24
69420;BMP280;56612;52.030;113.524;2022-09-03T00:56:03;92692.28;;;15.17
69420;BMP280;56612;52.030;113.524;2022-09-03T01:02:46;92682.44;;;15.99
69420;BMP280;56612;52.030;113.524;2022-09-03T01:06:16;92675.50;;;16.12
69420;BMP280;56612;52.030;113.524;2022-09-03T01:09:49;92681.13;;;15.96
69420;BMP280;56612;52.030;113.524;2022-09-03T01:13:16;92672.84;;;16.10
69420;BMP280;56612;52.030;113.524;2022-09-03T01:16:46;92671.09;;;16.36
69420;BMP280;56612;52.030;113.524;2022-09-03T01:30:14;92660.88;;;17.16
69420;BMP280;56612;52.030;113.524;2022-09-03T01:33:49;92652.34;;;17.67
69420;BMP280;56612;52.030;113.524;2022-09-03T01:37:18;92654.00;;;18.93
69420;BMP280;56612;52.030;113.524;2022-09-03T01:40:37;92652.44;;;19.47
69420;BMP280;56612;52.030;113.524;2022-09-03T01:57:06;92639.38;;;21.35
69420;BMP280;56612;52.030;113.524;2022-09-03T02:00:33;92633.88;;;21.72
69420;BMP280;56612;52.030;113.524;2022-09-03T02:03:41;92630.16;;;22.13
69420;BMP280;56612;52.030;113.524;2022-09-03T02:06:47;92629.50;;;22.29
69420;BMP280;56612;52.030;113.524;2022-09-03T02:09:51;92630.22;;;22.61
69420;BMP280;56612;52.030;113.524;2022-09-03T02:12:57;92622.16;;;23.20
69420;BMP280;56612;52.030;113.524;2022-09-03T02:16:11;92611.59;;;23.85
69420;BMP280;56612;52.030;113.524;2022-09-03T02:19:16;92607.72;;;23.95
69420;BMP280;56612;52.030;113.524;2022-09-03T02:22:20;92604.34;;;23.94
69420;BMP280;56612;52.030;113.524;2022-09-03T02:25:29;92586.78;;;24.59
69420;BMP280;56612;52.030;113.524;2022-09-03T02:28:35;92594.91;;;25.11
69420;BMP280;56612;52.030;113.524;2022-09-03T02:31:39;92591.72;;;25.32
69420;BMP280;56612;52.030;113.524;2022-09-03T02:34:43;92585.91;;;25.51
69420;BMP280;56612;52.030;113.524;2022-09-03T02:37:46;92587.44;;;25.60
69420;BMP280;56612;52.030;113.524;2022-09-03T02:40:50;92590.47;;;26.26
69420;BMP280;56612;52.030;113.524;2022-09-03T02:47:13;92579.44;;;26.62
69420;BMP280;56612;52.030;113.524;2022-09-03T02:50:16;92574.66;;;26.73
69420;BMP280;56612;52.030;113.524;2022-09-03T02:53:19;92570.06;;;27.14
69420;BMP280;56612;52.030;113.524;2022-09-03T02:56:23;92574.66;;;27.81
69420;BMP280;56612;52.030;113.524;2022-09-03T02:59:30;92555.50;;;28.52
69420;BMP280;56612;52.030;113.524;2022-09-03T03:02:34;92552.59;;;28.24
69420;BMP280;56612;52.030;113.524;2022-09-03T03:05:47;92555.06;;;29.07
69420;BMP280;56612;52.030;113.524;2022-09-03T03:08:53;92544.84;;;29.63
69420;BMP280;56612;52.030;113.524;2022-09-03T03:11:57;92535.94;;;30.35
69420;BMP280;56612;52.030;113.524;2022-09-03T03:15:02;92532.28;;;30.73
69420;BMP280;56612;52.030;113.524;2022-09-03T03:18:06;92529.88;;;31.03
69420;BMP280;56612;52.030;113.524;2022-09-03T03:21:13;92524.19;;;31.05
69420;BMP280;56612;52.030;113.524;2022-09-03T03:24:17;92529.22;;;31.03
69420;BMP280;56612;52.030;113.524;2022-09-03T03:27:21;92521.91;;;31.42
69420;BMP280;56612;52.030;113.524;2022-09-03T03:30:26;92518.66;;;31.48
69420;BMP280;56612;52.030;113.524;2022-09-03T03:33:31;92501.56;;;32.04
69420;BMP280;56612;52.030;113.524;2022-09-03T03:36:35;92498.53;;;32.55
69420;BMP280;56612;52.030;113.524;2022-09-03T03:39:39;92498.38;;;32.25
69420;BMP280;56612;52.030;113.524;2022-09-03T03:42:42;92493.38;;;33.29
69420;BMP280;56612;52.030;113.524;2022-09-03T03:45:59;92497.78;;;34.02
69420;BMP280;56612;52.030;113.524;2022-09-03T03:49:03;92481.19;;;33.71
69420;BMP280;56612;52.030;113.524;2022-09-03T03:52:09;92477.75;;;33.71
69420;BMP280;56612;52.030;113.524;2022-09-03T03:55:13;92471.38;;;33.12
69420;BMP280;56612;52.030;113.524;2022-09-03T03:58:17;92469.19;;;33.36
69420;BMP280;56612;52.030;113.524;2022-09-03T04:01:23;92474.72;;;33.66
69420;BMP280;56612;52.030;113.524;2022-09-03T04:04:28;92459.47;;;34.48
69420;BMP280;56612;52.030;113.524;2022-09-03T04:07:32;92461.19;;;34.51
69420;BMP280;56612;52.030;113.524;2022-09-03T04:10:36;92449.63;;;34.49
69420;BMP280;56612;52.030;113.524;2022-09-03T04:13:42;92444.97;;;35.32
69420;BMP280;56612;52.030;113.524;2022-09-03T04:16:47;92441.38;;;34.55
69420;BMP280;56612;52.030;113.524;2022-09-03T04:19:50;92436.66;;;33.73
69420;BMP280;56612;52.030;113.524;2022-09-03T04:22:54;92427.16;;;34.01
69420;BMP280;56612;52.030;113.524;2022-09-03T04:26:03;92418.66;;;32.90
69420;BMP280;56612;52.030;113.524;2022-09-03T04:29:08;92410.50;;;31.78
69420;BMP280;56612;52.030;113.524;2022-09-03T04:32:12;92412.94;;;31.73
69420;BMP280;56612;52.030;113.524;2022-09-03T04:35:33;92409.13;;;31.45
69420;BMP280;56612;52.030;113.524;2022-09-03T04:38:42;92400.78;;;32.65
69420;BMP280;56612;52.030;113.524;2022-09-03T04:41:46;92392.84;;;33.15
69420;BMP280;56612;52.030;113.524;2022-09-03T04:44:49;92387.44;;;31.97
69420;BMP280;56612;52.030;113.524;2022-09-03T04:48:00;92385.31;;;31.73
69420;BMP280;56612;52.030;113.524;2022-09-03T04:51:11;92371.69;;;33.12
69420;BMP280;56612;52.030;113.524;2022-09-03T04:54:16;92369.13;;;31.85
69420;BMP280;56612;52.030;113.524;2022-09-03T04:57:20;92367.06;;;31.76
69420;BMP280;56612;52.030;113.524;2022-09-03T05:00:25;92353.66;;;31.23
69420;BMP280;56612;52.030;113.524;2022-09-03T05:03:29;92353.47;;;30.67
69420;BMP280;56612;52.030;113.524;2022-09-03T05:06:35;92357.88;;;30.38
69420;BMP280;56612;52.030;113.524;2022-09-03T05:09:39;92351.50;;;30.05
69420;BMP280;56612;52.030;113.524;2022-09-03T05:12:43;92339.50;;;29.47
69420;BMP280;56612;52.030;113.524;2022-09-03T05:15:47;92338.13;;;28.92
69420;BMP280;56612;52.030;113.524;2022-09-03T05:18:52;92323.13;;;28.53
69420;BMP280;56612;52.030;113.524;2022-09-03T05:21:56;92316.00;;;28.28
69420;BMP280;56612;52.030;113.524;2022-09-03T05:25:00;92314.16;;;27.86
69420;BMP280;56612;52.030;113.524;2022-09-03T05:28:04;92323.41;;;27.61
69420;BMP280;56612;52.030;113.524;2022-09-03T05:31:16;92313.09;;;27.21
69420;BMP280;56612;52.030;113.524;2022-09-03T05:34:21;92314.47;;;27.01
69420;BMP280;56612;52.030;113.524;2022-09-03T05:37:25;92314.91;;;26.63
69420;BMP280;56612;52.030;113.524;2022-09-03T05:40:28;92309.94;;;26.34
69420;BMP280;56612;52.030;113.524;2022-09-03T05:43:34;92302.19;;;26.26
69420;BMP280;56612;52.030;113.524;2022-09-03T05:46:39;92291.00;;;26.30
69420;BMP280;56612;52.030;113.524;2022-09-03T05:49:43;92295.28;;;26.27
69420;BMP280;56612;52.030;113.524;2022-09-03T05:52:46;92284.09;;;26.20
69420;BMP280;56612;52.030;113.524;2022-09-03T05:55:58;92284.34;;;26.27
69420;BMP280;56612;52.030;113.524;2022-09-03T05:59:05;92270.41;;;26.31
69420;BMP280;56612;52.030;113.524;2022-09-03T06:02:09;92265.56;;;26.10
69420;BMP280;56612;52.030;113.524;2022-09-03T06:05:13;92265.78;;;25.95
69420;BMP280;56612;52.030;113.524;2022-09-03T06:08:20;92263.97;;;25.92
69420;BMP280;56612;52.030;113.524;2022-09-03T06:11:25;92268.25;;;25.78
69420;BMP280;56612;52.030;113.524;2022-09-03T06:14:32;92266.47;;;25.62
69420;BMP280;56612;52.030;113.524;2022-09-03T06:17:37;92256.72;;;25.65
69420;BMP280;56612;52.030;113.524;2022-09-03T06:20:41;92250.84;;;25.60
69420;BMP280;56612;52.030;113.524;2022-09-03T06:23:50;92261.53;;;25.64
69420;BMP280;56612;52.030;113.524;2022-09-03T06:27:01;92261.13;;;25.60
69420;BMP280;56612;52.030;113.524;2022-09-03T06:30:05;92255.53;;;25.62
69420;BMP280;56612;52.030;113.524;2022-09-03T06:33:09;92249.06;;;25.67
69420;BMP280;56612;52.030;113.524;2022-09-03T06:36:18;92242.03;;;25.70
69420;BMP280;56612;52.030;113.524;2022-09-03T06:39:22;92248.53;;;25.65
69420;BMP280;56612;52.030;113.524;2022-09-03T06:42:27;92234.56;;;25.58
69420;BMP280;56612;52.030;113.524;2022-09-03T06:45:31;92226.38;;;25.69
69420;BMP280;56612;52.030;113.524;2022-09-03T06:48:35;92216.63;;;25.83
69420;BMP280;56612;52.030;113.524;2022-09-03T06:51:40;92213.25;;;26.35
69420;BMP280;56612;52.030;113.524;2022-09-03T06:54:45;92214.63;;;26.77
69420;BMP280;56612;52.030;113.524;2022-09-03T06:57:54;92212.59;;;27.37
69420;BMP280;56612;52.030;113.524;2022-09-03T07:01:03;92212.97;;;28.18
69420;BMP280;56612;52.030;113.524;2022-09-03T07:04:09;92210.72;;;28.21
69420;BMP280;56612;52.030;113.524;2022-09-03T07:07:14;92204.22;;;28.16
69420;BMP280;56612;52.030;113.524;2022-09-03T07:10:18;92196.56;;;28.08
69420;BMP280;56612;52.030;113.524;2022-09-03T07:13:24;92194.03;;;28.14
69420;BMP280;56612;52.030;113.524;2022-09-03T07:16:32;92200.13;;;28.34
69420;BMP280;56612;52.030;113.524;2022-09-03T07:19:36;92197.38;;;28.34
69420;BMP280;56612;52.030;113.524;2022-09-03T07:22:40;92191.94;;;28.70
69420;BMP280;56612;52.030;113.524;2022-09-03T07:25:52;92202.13;;;29.17
69420;BMP280;56612;52.030;113.524;2022-09-03T07:28:57;92198.00;;;29.69
69420;BMP280;56612;52.030;113.524;2022-09-03T07:32:01;92195.16;;;30.55
69420;BMP280;56612;52.030;113.524;2022-09-03T07:35:05;92192.88;;;30.58
69420;BMP280;56612;52.030;113.524;2022-09-03T07:38:09;92189.19;;;30.36
69420;BMP280;56612;52.030;113.524;2022-09-03T07:41:14;92187.63;;;30.71
69420;BMP280;56612;52.030;113.524;2022-09-03T07:44:29;92183.34;;;30.80
69420;BMP280;56612;52.030;113.524;2022-09-03T07:47:33;92176.13;;;29.93
69420;BMP280;56612;52.030;113.524;2022-09-03T07:50:37;92187.44;;;29.29
69420;BMP280;56612;52.030;113.524;2022-09-03T07:53:47;92179.56;;;28.97
69420;BMP280;56612;52.030;113.524;2022-09-03T07:56:51;92180.84;;;28.89
69420;BMP280;56612;52.030;113.524;2022-09-03T07:59:55;92178.25;;;28.87
69420;BMP280;56612;52.030;113.524;2022-09-03T08:02:59;92179.03;;;28.77
69420;BMP280;56612;52.030;113.524;2022-09-03T08:06:09;92179.09;;;28.58
69420;BMP280;56612;52.030;113.524;2022-09-03T08:09:13;92176.41;;;28.11
69420;BMP280;56612;52.030;113.524;2022-09-03T08:12:17;92186.25;;;27.70
69420;BMP280;56612;52.030;113.524;2022-09-03T08:15:21;92192.06;;;27.36
69420;BMP280;56612;52.030;113.524;2022-09-03T08:18:25;92198.31;;;27.15
69420;BMP280;56612;52.030;113.524;2022-09-03T08:21:31;92200.34;;;26.95
69420;BMP280;56612;52.030;113.524;2022-09-03T08:24:35;92214.47;;;26.89
69420;BMP280;56612;52.030;113.524;2022-09-03T08:27:39;92212.81;;;26.73
69420;BMP280;56612;52.030;113.524;2022-09-03T08:30:43;92211.53;;;26.61
69420;BMP280;56612;52.030;113.524;2022-09-03T08:33:49;92213.66;;;26.50
69420;BMP280;56612;52.030;113.524;2022-09-03T08:36:53;92209.22;;;26.34
69420;BMP280;56612;52.030;113.524;2022-09-03T08:39:58;92201.94;;;26.20
69420;BMP280;56612;52.030;113.524;2022-09-03T08:43:11;92206.13;;;26.08
69420;BMP280;56612;52.030;113.524;2022-09-03T08:46:20;92217.56;;;26.00
69420;BMP280;56612;52.030;113.524;2022-09-03T08:49:49;92221.09;;;25.88
69420;BMP280;56612;52.030;113.524;2022-09-03T08:56:36;92246.63;;;25.40
69420;BMP280;56612;52.030;113.524;2022-09-03T08:59:37;92242.72;;;25.14
69420;BMP280;56612;52.030;113.524;2022-09-03T09:06:49;92272.97;;;24.99
69420;BMP280;56612;52.030;113.524;2022-09-03T09:10:25;92283.25;;;24.75
69420;BMP280;56612;52.030;113.524;2022-09-03T09:13:36;92290.75;;;24.52
69420;BMP280;56612;52.030;113.524;2022-09-03T09:17:24;92309.88;;;24.39
69420;BMP280;56612;52.030;113.524;2022-09-03T09:20:53;92325.09;;;24.23
69420;BMP280;56612;52.030;113.524;2022-09-03T09:24:01;92339.59;;;23.94
69420;BMP280;56612;52.030;113.524;2022-09-03T09:27:08;92351.00;;;23.59
69420;BMP280;56612;52.030;113.524;2022-09-03T09:30:18;92332.25;;;23.26
69420;BMP280;56612;52.030;113.524;2022-09-03T09:33:22;92316.97;;;22.91
69420;BMP280;56612;52.030;113.524;2022-09-03T09:36:26;92322.66;;;22.57
69420;BMP280;56612;52.030;113.524;2022-09-03T09:39:30;92314.88;;;22.34
69420;BMP280;56612;52.030;113.524;2022-09-03T09:42:34;92319.50;;;22.38
69420;BMP280;56612;52.030;113.524;2022-09-03T09:45:43;92298.75;;;22.45
69420;BMP280;56612;52.030;113.524;2022-09-03T09:48:52;92298.69;;;22.60
69420;BMP280;56612;52.030;113.524;2022-09-03T09:52:08;92279.16;;;22.55
69420;BMP280;56612;52.030;113.524;2022-09-03T09:55:18;92272.75;;;22.75
69420;BMP280;56612;52.030;113.524;2022-09-03T09:58:25;92270.28;;;22.57
69420;BMP280;56612;52.030;113.524;2022-09-03T10:01:30;92282.59;;;22.41
69420;BMP280;56612;52.030;113.524;2022-09-03T10:04:34;92293.56;;;22.39
69420;BMP280;56612;52.030;113.524;2022-09-03T10:07:37;92308.69;;;22.36
69420;BMP280;56612;52.030;113.524;2022-09-03T10:10:45;92318.84;;;22.37
69420;BMP280;56612;52.030;113.524;2022-09-03T10:13:52;92330.63;;;22.32
69420;BMP280;56612;52.030;113.524;2022-09-03T10:17:08;92327.53;;;22.11
69420;BMP280;56612;52.030;113.524;2022-09-03T10:26:53;92384.59;;;21.81
69420;BMP280;56612;52.030;113.524;2022-09-03T10:29:58;92413.28;;;21.64
69420;BMP280;56612;52.030;113.524;2022-09-03T10:33:25;92415.44;;;21.11
69420;BMP280;56612;52.030;113.524;2022-09-03T10:36:54;92445.13;;;20.98
69420;BMP280;56612;52.030;113.524;2022-09-03T10:43:52;92457.31;;;20.64
69420;BMP280;56612;52.030;113.524;2022-09-03T10:47:07;92462.47;;;20.34
69420;BMP280;56612;52.030;113.524;2022-09-03T10:50:14;92463.56;;;20.23
69420;BMP280;56612;52.030;113.524;2022-09-03T10:53:45;92475.34;;;20.15
69420;BMP280;56612;52.030;113.524;2022-09-03T10:57:11;92471.38;;;20.12
69420;BMP280;56612;52.030;113.524;2022-09-03T11:00:22;92494.94;;;20.18
69420;BMP280;56612;52.030;113.524;2022-09-03T11:10:10;92514.63;;;20.16
69420;BMP280;56612;52.030;113.524;2022-09-03T11:13:23;92524.13;;;20.17
69420;BMP280;56612;52.030;113.524;2022-09-03T11:16:32;92536.81;;;20.23
69420;BMP280;56612;52.030;113.524;2022-09-03T11:19:45;92539.97;;;20.29
69420;BMP280;56612;52.030;113.524;2022-09-03T11:22:54;92536.00;;;20.26
69420;BMP280;56612;52.030;113.524;2022-09-03T11:26:04;92534.78;;;20.23
69420;BMP280;56612;52.030;113.524;2022-09-03T11:33:18;92544.78;;;19.87
69420;BMP280;56612;52.030;113.524;2022-09-03T11:36:23;92541.28;;;19.91
69420;BMP280;56612;52.030;113.524;2022-09-03T11:42:39;92535.84;;;19.91
69420;BMP280;56612;52.030;113.524;2022-09-03T11:45:44;92536.66;;;19.87
69420;BMP280;56612;52.030;113.524;2022-09-03T11:52:03;92567.22;;;19.86
69420;BMP280;56612;52.030;113.524;2022-09-03T11:55:23;92579.66;;;19.79
69420;BMP280;56612;52.030;113.524;2022-09-03T11:58:29;92595.75;;;19.62
69420;BMP280;56612;52.030;113.524;2022-09-03T12:01:36;92597.34;;;19.55
69420;BMP280;56612;52.030;113.524;2022-09-03T12:15:04;92605.75;;;19.24
69420;BMP280;56612;52.030;113.524;2022-09-03T12:18:23;92610.69;;;19.15
69420;BMP280;56612;52.030;113.524;2022-09-03T12:21:28;92613.72;;;19.05
69420;BMP280;56612;52.030;113.524;2022-09-03T12:24:34;92613.81;;;19.01
69420;BMP280;56612;52.030;113.524;2022-09-03T12:27:43;92623.22;;;19.04
69420;BMP280;56612;52.030;113.524;2022-09-03T12:30:49;92630.06;;;19.01
69420;BMP280;56612;52.030;113.524;2022-09-03T12:34:01;92618.81;;;18.93
69420;BMP280;56612;52.030;113.524;2022-09-03T12:37:17;92623.38;;;18.98
69420;BMP280;56612;52.030;113.524;2022-09-03T12:40:43;92616.59;;;18.74
69420;BMP280;56612;52.030;113.524;2022-09-03T12:44:09;92625.72;;;18.61
69420;BMP280;56612;52.030;113.524;2022-09-03T12:47:16;92640.03;;;18.57
69420;BMP280;56612;52.030;113.524;2022-09-03T12:50:39;92629.38;;;18.51
69420;BMP280;56612;52.030;113.524;2022-09-03T12:53:50;92637.72;;;18.43
69420;BMP280;56612;52.030;113.524;2022-09-03T12:56:57;92631.06;;;18.38
69420;BMP280;56612;52.030;113.524;2022-09-03T13:00:08;92626.69;;;18.24
69420;BMP280;56612;52.030;113.524;2022-09-03T13:03:20;92630.25;;;18.17
69420;BMP280;56612;52.030;113.524;2022-09-03T13:06:32;92640.31;;;18.20
69420;BMP280;56612;52.030;113.524;2022-09-03T13:09:39;92645.84;;;18.14
69420;BMP280;56612;52.030;113.524;2022-09-03T13:12:45;92650.13;;;18.05
69420;BMP280;56612;52.030;113.524;2022-09-03T13:23:20;92651.00;;;17.97
69420;BMP280;56612;52.030;113.524;2022-09-03T13:33:04;92660.31;;;17.43
69420;BMP280;56612;52.030;113.524;2022-09-03T13:39:37;92662.19;;;17.17
69420;BMP280;56612;52.030;113.524;2022-09-03T13:42:53;92666.06;;;16.91
69420;BMP280;56612;52.030;113.524;2022-09-03T13:46:02;92669.22;;;16.67
69420;BMP280;56612;52.030;113.524;2022-09-03T13:53:06;92685.19;;;16.38
69420;BMP280;56612;52.030;113.524;2022-09-03T13:59:52;92680.94;;;16.10
69420;BMP280;56612;52.030;113.524;2022-09-03T14:09:46;92677.31;;;15.83
69420;BMP280;56612;52.030;113.524;2022-09-03T14:13:12;92674.00;;;15.76
69420;BMP280;56612;52.030;113.524;2022-09-03T14:20:03;92681.41;;;15.78
69420;BMP280;56612;52.030;113.524;2022-09-03T14:23:39;92675.50;;;15.65
69420;BMP280;56612;52.030;113.524;2022-09-03T14:26:51;92693.31;;;15.44
69420;BMP280;56612;52.030;113.524;2022-09-03T14:30:02;92686.72;;;15.33
69420;BMP280;56612;52.030;113.524;2022-09-03T14:55:04;92721.84;;;15.19
69420;BMP280;56612;52.030;113.524;2022-09-03T14:58:49;92716.06;;;14.94
69420;BMP280;56612;52.030;113.524;2022-09-03T15:02:34;92726.06;;;15.03
69420;BMP280;56612;52.030;113.524;2022-09-03T15:12:43;92707.81;;;15.08
69420;BMP280;56612;52.030;113.524;2022-09-03T15:32:56;92716.34;;;14.63
69420;BMP280;56612;52.030;113.524;2022-09-03T15:39:35;92705.53;;;14.65
69420;BMP280;56612;52.030;113.524;2022-09-03T15:42:41;92705.63;;;14.55
69420;BMP280;56612;52.030;113.524;2022-09-03T15:45:57;92695.72;;;14.37
69420;BMP280;56612;52.030;113.524;2022-09-03T15:49:09;92693.13;;;14.29
69420;BMP280;56612;52.030;113.524;2022-09-03T15:55:43;92687.06;;;14.29
69420;BMP280;56612;52.030;113.524;2022-09-03T15:59:16;92689.78;;;14.27
69420;BMP280;56612;52.030;113.524;2022-09-03T16:02:30;92690.53;;;14.15
69420;BMP280;56612;52.030;113.524;2022-09-03T16:05:48;92687.78;;;14.23
69420;BMP280;56612;52.030;113.524;2022-09-03T16:09:02;92678.34;;;14.28
69420;BMP280;56612;52.030;113.524;2022-09-03T16:15:24;92687.84;;;14.13
69420;BMP280;56612;52.030;113.524;2022-09-03T16:18:37;92691.25;;;14.03
69420;BMP280;56612;52.030;113.524;2022-09-03T16:22:44;92694.66;;;13.94
69420;BMP280;56612;52.030;113.524;2022-09-03T16:29:00;92712.16;;;13.93
69420;BMP280;56612;52.030;113.524;2022-09-03T16:38:54;92721.13;;;13.47
69420;BMP280;56612;52.030;113.524;2022-09-03T16:42:10;92727.88;;;13.36
69420;BMP280;56612;52.030;113.524;2022-09-03T16:52:30;92721.84;;;13.33
69420;BMP280;56612;52.030;113.524;2022-09-03T16:56:04;92735.25;;;13.33
69420;BMP280;56612;52.030;113.524;2022-09-03T17:09:37;92722.59;;;12.95
69420;BMP280;56612;52.030;113.524;2022-09-03T17:26:38;92742.03;;;12.77
69420;BMP280;56612;52.030;113.524;2022-09-03T17:36:48;92723.31;;;12.33
69420;BMP280;56612;52.030;113.524;2022-09-03T17:53:23;92732.66;;;12.13
69420;BMP280;56612;52.030;113.524;2022-09-03T17:56:45;92729.28;;;12.15
69420;BMP280;56612;52.030;113.524;2022-09-03T17:59:58;92731.34;;;12.18
69420;BMP280;56612;52.030;113.524;2022-09-03T18:03:18;92722.63;;;12.30
69420;BMP280;56612;52.030;113.524;2022-09-03T18:16:53;92731.31;;;12.24
69420;BMP280;56612;52.030;113.524;2022-09-03T18:20:04;92739.34;;;12.16
69420;BMP280;56612;52.030;113.524;2022-09-03T18:27:14;92736.00;;;12.22
69420;BMP280;56612;52.030;113.524;2022-09-03T18:30:39;92740.66;;;12.15
69420;BMP280;56612;52.030;113.524;2022-09-03T18:34:02;92732.66;;;12.11
69420;BMP280;56612;52.030;113.524;2022-09-03T18:37:26;92731.31;;;12.08
69420;BMP280;56612;52.030;113.524;2022-09-03T18:40:58;92730.59;;;11.91
69420;BMP280;56612;52.030;113.524;2022-09-03T18:48:46;92721.91;;;11.89
69420;BMP280;56612;52.030;113.524;2022-09-03T18:56:11;92735.28;;;11.89
69420;BMP280;56612;52.030;113.524;2022-09-03T19:00:04;92745.31;;;11.86
69420;BMP280;56612;52.030;113.524;2022-09-03T19:04:00;92733.88;;;11.70
69420;BMP280;56612;52.030;113.524;2022-09-03T19:18:20;92741.84;;;11.51
69420;BMP280;56612;52.030;113.524;2022-09-03T19:21:47;92739.78;;;11.40
69420;BMP280;56612;52.030;113.524;2022-09-03T19:25:13;92747.19;;;11.47
69420;BMP280;56612;52.030;113.524;2022-09-03T19:28:40;92745.78;;;11.42
69420;BMP280;56612;52.030;113.524;2022-09-03T19:32:13;92746.44;;;11.41
69420;BMP280;56612;52.030;113.524;2022-09-03T19:35:52;92740.47;;;11.50
69420;BMP280;56612;52.030;113.524;2022-09-03T19:39:32;92745.13;;;11.44
69420;BMP280;56612;52.030;113.524;2022-09-03T19:43:06;92745.13;;;11.38
69420;BMP280;56612;52.030;113.524;2022-09-03T19:46:39;92756.47;;;11.36
69420;BMP280;56612;52.030;113.524;2022-09-03T19:50:20;92745.13;;;11.38
69420;BMP280;56612;52.030;113.524;2022-09-03T19:53:43;92752.41;;;11.27
69420;BMP280;56612;52.030;113.524;2022-09-03T19:57:07;92753.75;;;11.24
69420;BMP280;56612;52.030;113.524;2022-09-03T20:00:32;92749.69;;;11.21
69420;BMP280;56612;52.030;113.524;2022-09-03T20:03:57;92743.03;;;11.26
69420;BMP280;56612;52.030;113.524;2022-09-03T20:07:19;92739.06;;;11.29
69420;BMP280;56612;52.030;113.524;2022-09-03T20:10:43;92753.75;;;11.24
69420;BMP280;56612;52.030;113.524;2022-09-03T20:13:50;92752.31;;;11.13
69420;BMP280;56612;52.030;113.524;2022-09-03T20:20:33;92750.16;;;10.89
69420;BMP280;56612;52.030;113.524;2022-09-03T20:30:34;92737.53;;;11.02
69420;BMP280;56612;52.030;113.524;2022-09-03T20:37:36;92746.28;;;11.08
69420;BMP280;56612;52.030;113.524;2022-09-03T20:41:02;92748.25;;;11.00
69420;BMP280;56612;52.030;113.524;2022-09-03T20:44:18;92750.16;;;10.87
69420;BMP280;56612;52.030;113.524;2022-09-03T20:47:43;92750.22;;;10.93
69420;BMP280;56612;52.030;113.524;2022-09-03T20:50:56;92754.16;;;10.88
69420;BMP280;56612;52.030;113.524;2022-09-03T20:54:35;92748.09;;;10.79
69420;BMP280;56612;52.030;113.524;2022-09-03T21:01:16;92737.41;;;10.81
69420;BMP280;56612;52.030;113.524;2022-09-03T21:11:10;92740.72;;;10.74
69420;BMP280;56612;52.030;113.524;2022-09-03T21:14:33;92737.38;;;10.75
69420;BMP280;56612;52.030;113.524;2022-09-03T21:21:03;92749.53;;;10.92
69420;BMP280;56612;52.030;113.524;2022-09-03T21:24:43;92748.69;;;10.72
69420;BMP280;56612;52.030;113.524;2022-09-03T21:28:00;92745.31;;;10.63
69420;BMP280;56612;52.030;113.524;2022-09-03T21:34:19;92749.69;;;10.28
69420;BMP280;56612;52.030;113.524;2022-09-03T21:37:27;92754.41;;;10.38
69420;BMP280;56612;52.030;113.524;2022-09-03T21:40:40;92750.38;;;10.33
69420;BMP280;56612;52.030;113.524;2022-09-03T21:44:32;92766.44;;;10.37
69420;BMP280;56612;52.030;113.524;2022-09-03T21:47:43;92755.59;;;10.18
69420;BMP280;56612;52.030;113.524;2022-09-03T21:50:54;92744.22;;;10.16
69420;BMP280;56612;52.030;113.524;2022-09-03T21:57:15;92746.94;;;10.22
69420;BMP280;56612;52.030;113.524;2022-09-03T22:00:27;92748.91;;;10.17
69420;BMP280;56612;52.030;113.524;2022-09-03T22:03:35;92748.78;;;10.07
69420;BMP280;56612;52.030;113.524;2022-09-03T22:13:34;92730.13;;;10.09
69420;BMP280;56612;52.030;113.524;2022-09-03T22:16:48;92738.19;;;10.13
69420;BMP280;56612;52.030;113.524;2022-09-03T22:19:55;92730.84;;;10.14
69420;BMP280;56612;52.030;113.524;2022-09-03T22:23:06;92732.09;;;10.05
69420;BMP280;56612;52.030;113.524;2022-09-03T22:26:27;92734.72;;;10.01
69420;BMP280;56612;52.030;113.524;2022-09-03T22:29:54;92735.22;;;9.87
69420;BMP280;56612;52.030;113.524;2022-09-03T22:33:26;92734.63;;;9.90
69420;BMP280;56612;52.030;113.524;2022-09-03T22:36:50;92729.16;;;9.80
69420;BMP280;56612;52.030;113.524;2022-09-03T22:40:10;92738.66;;;9.96
69420;BMP280;56612;52.030;113.524;2022-09-03T22:43:38;92737.50;;;10.13
69420;BMP280;56612;52.030;113.524;2022-09-03T22:51:14;92738.00;;;9.97
69420;BMP280;56612;52.030;113.524;2022-09-03T22:54:21;92729.31;;;9.95
69420;BMP280;56612;52.030;113.524;2022-09-03T22:57:28;92735.41;;;10.01
69420;BMP280;56612;52.030;113.524;2022-09-03T23:00:47;92729.41;;;10.03
69420;BMP280;56612;52.030;113.524;2022-09-03T23:04:03;92735.41;;;10.03
69420;BMP280;56612;52.030;113.524;2022-09-03T23:07:31;92732.81;;;10.09
69420;BMP280;56612;52.030;113.524;2022-09-03T23:14:09;92741.44;;;10.06
69420;BMP280;56612;52.030;113.524;2022-09-03T23:17:21;92736.75;;;10.04
69420;BMP280;56612;52.030;113.524;2022-09-03T23:20:28;92738.13;;;10.07